Time,TemperatureF,DewpointF,PressureIn,WindDirection,WindDirectionDegrees,WindSpeedMPH,WindSpeedGustMPH,Humidity,HourlyPrecipIn,Conditions,Clouds,dailyrainin,SoftwareType,DateUTC
2013-04-21 00:10:00,30.3,23.0,30.45,NNW,346,0.0,0.0,75,0.00,,,0.00,weatherlink.com 1.10,2013-04-21 04:10:00,
2013-04-21 00:25:00,29.7,23.0,30.45,NNW,346,0.0,0.0,77,0.00,,,0.00,weatherlink.com 1.10,2013-04-21 04:25:00,
2013-04-21 00:40:00,29.9,24.0,30.46,NNW,346,0.0,1.0,79,0.00,,,0.00,weatherlink.com 1.10,2013-04-21 04:40:00,
2013-04-21 00:55:00,29.6,24.0,30.46,NNW,346,0.0,0.0,79,0.00,,,0.00,weatherlink.com 1.10,2013-04-21 04:55:00,
2013-04-21 01:10:00,28.8,23.0,30.46,NNW,346,0.0,0.0,80,0.00,,,0.00,weatherlink.com 1.10,2013-04-21 05:10:00,
2013-04-21 01:25:00,28.4,23.0,30.46,NNW,346,0.0,0.0,81,0.00,,,0.00,weatherlink.com 1.10,2013-04-21 05:25:00,
2013-04-21 01:40:00,28.1,24.0,30.47,NNW,346,0.0,0.0,83,0.00,,,0.00,weatherlink.com 1.10,2013-04-21 05:40:00,
2013-04-21 01:55:00,28.4,24.0,30.47,NNW,346,0.0,0.0,82,0.00,,,0.00,weatherlink.com 1.10,2013-04-21 05:55:00,
2013-04-21 02:10:00,27.6,24.0,30.47,NNW,346,0.0,0.0,85,0.00,,,0.00,weatherlink.com 1.10,2013-04-21 06:10:00,
2013-04-21 02:25:00,27.8,24.0,30.47,NNW,346,0.0,1.0,84,0.00,,,0.00,weatherlink.com 1.10,2013-04-21 06:25:00,
2013-04-21 02:40:00,27.1,23.0,30.47,NNW,346,0.0,0.0,85,0.00,,,0.00,weatherlink.com 1.10,2013-04-21 06:40:00,
2013-04-21 02:55:00,27.0,24.0,30.47,NNW,346,0.0,0.0,87,0.00,,,0.00,weatherlink.com 1.10,2013-04-21 06:55:00,
2013-04-21 03:10:00,27.2,24.0,30.47,NNW,346,0.0,0.0,87,0.00,,,0.00,weatherlink.com 1.10,2013-04-21 07:10:00,
2013-04-21 03:25:00,26.3,23.0,30.47,NNW,346,0.0,0.0,87,0.00,,,0.00,weatherlink.com 1.10,2013-04-21 07:25:00,
2013-04-21 03:40:00,25.9,23.0,30.48,NNW,346,0.0,0.0,89,0.00,,,0.00,weatherlink.com 1.10,2013-04-21 07:40:00,
2013-04-21 03:55:00,26.5,24.0,30.48,NNW,346,0.0,0.0,89,0.00,,,0.00,weatherlink.com 1.10,2013-04-21 07:55:00,
2013-04-21 04:10:00,26.2,23.0,30.48,NNW,346,0.0,0.0,88,0.00,,,0.00,weatherlink.com 1.10,2013-04-21 08:10:00,
2013-04-21 04:25:00,26.3,23.0,30.49,NNW,346,0.0,1.0,87,0.00,,,0.00,weatherlink.com 1.10,2013-04-21 08:25:00,
2013-04-21 04:40:00,27.3,23.0,30.50,NNW,346,0.0,1.0,85,0.00,,,0.00,weatherlink.com 1.10,2013-04-21 08:40:00,
2013-04-21 04:55:00,26.9,23.0,30.50,NNW,346,1.0,2.0,84,0.00,,,0.00,weatherlink.com 1.10,2013-04-21 08:55:00,
2013-04-21 05:10:00,26.9,23.0,30.50,NE,34,0.0,2.0,84,0.00,,,0.00,weatherlink.com 1.10,2013-04-21 09:10:00,
2013-04-21 05:25:00,27.0,23.0,30.51,NE,34,0.0,0.0,83,0.00,,,0.00,weatherlink.com 1.10,2013-04-21 09:25:00,
2013-04-21 05:40:00,27.3,22.0,30.51,NE,34,0.0,1.0,81,0.00,,,0.00,weatherlink.com 1.10,2013-04-21 09:40:00,
2013-04-21 05:55:00,27.4,22.0,30.52,NE,34,2.0,3.0,81,0.00,,,0.00,weatherlink.com 1.10,2013-04-21 09:55:00,
2013-04-21 06:10:00,27.5,23.0,30.52,NE,34,1.0,3.0,82,0.00,,,0.00,weatherlink.com 1.10,2013-04-21 10:10:00,
2013-04-21 06:25:00,27.5,23.0,30.53,NE,34,1.0,3.0,82,0.00,,,0.00,weatherlink.com 1.10,2013-04-21 10:25:00,
2013-04-21 06:40:00,27.6,23.0,30.54,NE,34,0.0,2.0,81,0.00,,,0.00,weatherlink.com 1.10,2013-04-21 10:40:00,
2013-04-21 06:55:00,27.2,22.0,30.54,NE,34,1.0,2.0,82,0.00,,,0.00,weatherlink.com 1.10,2013-04-21 10:55:00,
2013-04-21 07:10:00,27.1,23.0,30.54,NE,34,1.0,3.0,84,0.00,,,0.00,weatherlink.com 1.10,2013-04-21 11:10:00,
2013-04-21 07:25:00,28.1,24.0,30.55,NE,34,1.0,2.0,84,0.00,,,0.00,weatherlink.com 1.10,2013-04-21 11:25:00,
2013-04-21 07:41:00,29.6,25.0,30.55,East,93,3.0,6.0,83,0.00,,,0.00,weatherlink.com 1.10,2013-04-21 11:41:00,
2013-04-21 07:56:00,30.8,25.0,30.56,ESE,105,5.0,9.0,80,0.00,,,0.00,weatherlink.com 1.10,2013-04-21 11:56:00,
2013-04-21 08:11:00,31.7,25.0,30.57,East,100,7.0,9.0,77,0.00,,,0.00,weatherlink.com 1.10,2013-04-21 12:11:00,
2013-04-21 08:26:00,32.6,26.0,30.57,ESE,105,4.0,9.0,77,0.00,,,0.00,weatherlink.com 1.10,2013-04-21 12:26:00,
2013-04-21 08:41:00,33.4,26.0,30.57,ESE,105,8.0,11.0,75,0.00,,,0.00,weatherlink.com 1.10,2013-04-21 12:41:00,
2013-04-21 08:56:00,34.1,26.0,30.57,SE,126,8.0,12.0,72,0.00,,,0.00,weatherlink.com 1.10,2013-04-21 12:56:00,
2013-04-21 09:11:00,35.0,27.0,30.57,ESE,121,9.0,13.0,72,0.00,,,0.00,weatherlink.com 1.10,2013-04-21 13:11:00,
2013-04-21 09:26:00,35.9,28.0,30.57,East,95,11.0,13.0,72,0.00,,,0.00,weatherlink.com 1.10,2013-04-21 13:26:00,
2013-04-21 09:41:00,37.1,27.0,30.57,SE,124,11.0,11.0,68,0.00,,,0.00,weatherlink.com 1.10,2013-04-21 13:41:00,
2013-04-21 09:56:00,37.8,27.0,30.57,SSE,149,9.0,15.0,65,0.00,,,0.00,weatherlink.com 1.10,2013-04-21 13:56:00,
2013-04-21 10:11:00,38.4,26.0,30.57,SE,130,5.0,15.0,61,0.00,,,0.00,weatherlink.com 1.10,2013-04-21 14:11:00,
2013-04-21 10:26:00,38.8,26.0,30.57,SE,138,11.0,16.0,60,0.00,,,0.00,weatherlink.com 1.10,2013-04-21 14:26:00,
2013-04-21 10:41:00,39.5,27.0,30.58,ESE,121,9.0,15.0,61,0.00,,,0.00,weatherlink.com 1.10,2013-04-21 14:41:00,
2013-04-21 10:56:00,40.4,28.0,30.58,ESE,112,12.0,15.0,61,0.00,,,0.00,weatherlink.com 1.10,2013-04-21 14:56:00,
2013-04-21 11:11:00,40.7,28.0,30.58,ESE,103,10.0,15.0,62,0.00,,,0.00,weatherlink.com 1.10,2013-04-21 15:11:00,
2013-04-21 11:26:00,41.2,29.0,30.58,ESE,119,12.0,18.0,61,0.00,,,0.00,weatherlink.com 1.10,2013-04-21 15:26:00,
2013-04-21 11:41:00,41.5,29.0,30.58,ESE,120,8.0,16.0,61,0.00,,,0.00,weatherlink.com 1.10,2013-04-21 15:41:00,
2013-04-21 11:56:00,42.7,32.0,30.58,ESE,113,14.0,15.0,66,0.00,,,0.00,weatherlink.com 1.10,2013-04-21 15:56:00,
2013-04-21 12:11:00,43.1,32.0,30.57,SE,145,9.0,16.0,64,0.00,,,0.00,weatherlink.com 1.10,2013-04-21 16:11:00,
2013-04-21 12:26:00,43.4,31.0,30.57,SE,128,10.0,15.0,62,0.00,,,0.00,weatherlink.com 1.10,2013-04-21 16:26:00,
2013-04-21 12:41:00,43.8,31.0,30.56,SE,139,16.0,16.0,62,0.00,,,0.00,weatherlink.com 1.10,2013-04-21 16:41:00,
2013-04-21 12:56:00,44.0,31.0,30.56,SSE,159,8.0,16.0,60,0.00,,,0.00,weatherlink.com 1.10,2013-04-21 16:56:00,
2013-04-21 13:11:00,44.5,32.0,30.55,SE,138,7.0,15.0,61,0.00,,,0.00,weatherlink.com 1.10,2013-04-21 17:11:00,
2013-04-21 13:26:00,44.7,31.0,30.55,SE,135,11.0,17.0,60,0.00,,,0.00,weatherlink.com 1.10,2013-04-21 17:26:00,
2013-04-21 13:41:00,45.4,31.0,30.54,ESE,106,12.0,15.0,58,0.00,,,0.00,weatherlink.com 1.10,2013-04-21 17:41:00,
2013-04-21 13:56:00,45.7,31.0,30.53,ESE,107,10.0,15.0,57,0.00,,,0.00,weatherlink.com 1.10,2013-04-21 17:56:00,
2013-04-21 14:11:00,45.8,30.0,30.53,SSE,165,4.0,16.0,55,0.00,,,0.00,weatherlink.com 1.10,2013-04-21 18:11:00,
2013-04-21 14:27:00,46.1,31.0,30.52,ESE,120,8.0,15.0,57,0.00,,,0.00,weatherlink.com 1.10,2013-04-21 18:27:00,
2013-04-21 14:42:00,46.9,33.0,30.52,ESE,102,13.0,15.0,58,0.00,,,0.00,weatherlink.com 1.10,2013-04-21 18:42:00,
2013-04-21 14:57:00,46.9,32.0,30.51,ESE,105,5.0,12.0,56,0.00,,,0.00,weatherlink.com 1.10,2013-04-21 18:57:00,
2013-04-21 15:12:00,47.9,34.0,30.50,SE,131,11.0,14.0,59,0.00,,,0.00,weatherlink.com 1.10,2013-04-21 19:12:00,
2013-04-21 15:27:00,48.1,33.0,30.49,ESE,121,10.0,14.0,56,0.00,,,0.00,weatherlink.com 1.10,2013-04-21 19:27:00,
2013-04-21 15:42:00,48.3,33.0,30.48,ESE,116,11.0,14.0,55,0.00,,,0.00,weatherlink.com 1.10,2013-04-21 19:42:00,
2013-04-21 15:57:00,49.1,34.0,30.47,ESE,123,13.0,16.0,57,0.00,,,0.00,weatherlink.com 1.10,2013-04-21 19:57:00,
2013-04-21 16:12:00,48.7,33.0,30.46,ESE,102,10.0,14.0,54,0.00,,,0.00,weatherlink.com 1.10,2013-04-21 20:12:00,
2013-04-21 16:27:00,48.9,33.0,30.46,ESE,119,5.0,13.0,54,0.00,,,0.00,weatherlink.com 1.10,2013-04-21 20:27:00,
2013-04-21 16:42:00,49.3,33.0,30.45,ESE,121,8.0,16.0,54,0.00,,,0.00,weatherlink.com 1.10,2013-04-21 20:42:00,
2013-04-21 16:57:00,49.2,33.0,30.45,SE,140,6.0,13.0,53,0.00,,,0.00,weatherlink.com 1.10,2013-04-21 20:57:00,
2013-04-21 17:12:00,49.1,31.0,30.45,SE,146,4.0,13.0,51,0.00,,,0.00,weatherlink.com 1.10,2013-04-21 21:12:00,
2013-04-21 17:27:00,49.9,33.0,30.44,ESE,121,9.0,13.0,52,0.00,,,0.00,weatherlink.com 1.10,2013-04-21 21:27:00,
2013-04-21 17:42:00,49.9,33.0,30.44,ESE,123,11.0,18.0,53,0.00,,,0.00,weatherlink.com 1.10,2013-04-21 21:42:00,
2013-04-21 17:57:00,50.0,32.0,30.44,ESE,123,5.0,14.0,50,0.00,,,0.00,weatherlink.com 1.10,2013-04-21 21:57:00,
2013-04-21 18:12:00,50.0,34.0,30.43,SE,132,10.0,15.0,54,0.00,,,0.00,weatherlink.com 1.10,2013-04-21 22:12:00,
2013-04-21 18:27:00,50.0,33.0,30.43,ESE,118,10.0,14.0,52,0.00,,,0.00,weatherlink.com 1.10,2013-04-21 22:27:00,
2013-04-21 18:42:00,49.8,34.0,30.43,ESE,119,5.0,14.0,54,0.00,,,0.00,weatherlink.com 1.10,2013-04-21 22:42:00,
2013-04-21 18:57:00,49.5,33.0,30.43,SE,130,8.0,13.0,54,0.00,,,0.00,weatherlink.com 1.10,2013-04-21 22:57:00,
2013-04-21 19:12:00,49.1,33.0,30.43,ESE,113,11.0,13.0,55,0.00,,,0.00,weatherlink.com 1.10,2013-04-21 23:12:00,
2013-04-21 19:27:00,48.4,33.0,30.43,SE,128,7.0,15.0,55,0.00,,,0.00,weatherlink.com 1.10,2013-04-21 23:27:00,
2013-04-21 19:42:00,47.8,32.0,30.43,ESE,119,12.0,15.0,54,0.00,,,0.00,weatherlink.com 1.10,2013-04-21 23:42:00,
2013-04-21 19:57:00,47.1,33.0,30.43,ESE,109,11.0,12.0,59,0.00,,,0.00,weatherlink.com 1.10,2013-04-21 23:57:00,
2013-04-21 20:12:00,46.7,32.0,30.43,ESE,102,7.0,12.0,58,0.00,,,0.00,weatherlink.com 1.10,2013-04-22 00:12:00,
2013-04-21 20:27:00,45.8,33.0,30.43,ESE,116,5.0,11.0,62,0.00,,,0.00,weatherlink.com 1.10,2013-04-22 00:27:00,
2013-04-21 20:42:00,44.8,33.0,30.43,ESE,114,5.0,9.0,64,0.00,,,0.00,weatherlink.com 1.10,2013-04-22 00:42:00,
2013-04-21 20:57:00,43.6,33.0,30.43,ESE,114,4.0,5.0,67,0.00,,,0.00,weatherlink.com 1.10,2013-04-22 00:57:00,
2013-04-21 21:12:00,43.3,33.0,30.43,SE,128,4.0,6.0,68,0.00,,,0.00,weatherlink.com 1.10,2013-04-22 01:12:00,
2013-04-21 21:27:00,43.4,33.0,30.43,SE,133,2.0,6.0,67,0.00,,,0.00,weatherlink.com 1.10,2013-04-22 01:27:00,
2013-04-21 21:42:00,43.0,33.0,30.43,SE,134,2.0,6.0,68,0.00,,,0.00,weatherlink.com 1.10,2013-04-22 01:42:00,
2013-04-21 21:57:00,42.7,34.0,30.43,SSE,150,2.0,6.0,70,0.00,,,0.00,weatherlink.com 1.10,2013-04-22 01:57:00,
2013-04-21 22:12:00,42.6,33.0,30.43,SE,146,4.0,7.0,69,0.00,,,0.00,weatherlink.com 1.10,2013-04-22 02:12:00,
2013-04-21 22:27:00,42.2,33.0,30.43,SE,130,4.0,8.0,70,0.00,,,0.00,weatherlink.com 1.10,2013-04-22 02:27:00,
2013-04-21 22:42:00,42.2,34.0,30.43,ESE,113,10.0,13.0,74,0.00,,,0.00,weatherlink.com 1.10,2013-04-22 02:42:00,
2013-04-21 22:57:00,41.6,35.0,30.43,ESE,106,8.0,12.0,76,0.00,,,0.00,weatherlink.com 1.10,2013-04-22 02:57:00,
2013-04-21 23:12:00,41.0,34.0,30.42,ESE,120,10.0,13.0,77,0.00,,,0.00,weatherlink.com 1.10,2013-04-22 03:12:00,
2013-04-21 23:27:00,40.5,34.0,30.42,ESE,108,8.0,13.0,78,0.00,,,0.00,weatherlink.com 1.10,2013-04-22 03:27:00,
2013-04-21 23:42:00,39.9,34.0,30.42,ESE,113,8.0,12.0,79,0.00,,,0.00,weatherlink.com 1.10,2013-04-22 03:42:00,
2013-04-21 23:57:00,39.3,34.0,30.42,ESE,103,9.0,11.0,80,0.00,,,0.00,weatherlink.com 1.10,2013-04-22 03:57:00,